sensor_id;sensor_type;location;lat;lon;timestamp;temperature;humidity
76577;DHT22;65441;44.748;37.600;2023-11-21T00:00:17;4.21;89.09
76577;DHT22;65441;44.748;37.600;2023-11-21T00:02:46;4.18;88.67
76577;DHT22;65441;44.748;37.600;2023-11-21T00:05:14;4.02;89.09
76577;DHT22;65441;44.748;37.600;2023-11-21T00:07:43;4.15;90.27
76577;DHT22;65441;44.748;37.600;2023-11-21T00:10:12;4.19;88.74
76577;DHT22;65441;44.748;37.600;2023-11-21T00:12:42;4.19;88.99
76577;DHT22;65441;44.748;37.600;2023-11-21T00:15:22;4.19;88.83
76577;DHT22;65441;44.748;37.600;2023-11-21T00:17:50;4.21;88.87
76577;DHT22;65441;44.748;37.600;2023-11-21T00:20:18;4.24;89.28
76577;DHT22;65441;44.748;37.600;2023-11-21T00:22:48;4.32;88.97
76577;DHT22;65441;44.748;37.600;2023-11-21T00:25:17;4.27;89.24
76577;DHT22;65441;44.748;37.600;2023-11-21T00:27:46;4.27;89.05
76577;DHT22;65441;44.748;37.600;2023-11-21T00:30:15;4.30;89.44
76577;DHT22;65441;44.748;37.600;2023-11-21T00:32:46;4.29;88.78
76577;DHT22;65441;44.748;37.600;2023-11-21T00:35:14;4.28;88.47
76577;DHT22;65441;44.748;37.600;2023-11-21T00:37:43;4.21;89.02
76577;DHT22;65441;44.748;37.600;2023-11-21T00:40:12;4.32;89.44
76577;DHT22;65441;44.748;37.600;2023-11-21T00:42:42;4.22;89.92
76577;DHT22;65441;44.748;37.600;2023-11-21T00:45:11;4.19;89.80
76577;DHT22;65441;44.748;37.600;2023-11-21T00:47:39;4.19;90.05
76577;DHT22;65441;44.748;37.600;2023-11-21T00:50:10;4.26;90.66
76577;DHT22;65441;44.748;37.600;2023-11-21T00:52:38;4.36;91.02
76577;DHT22;65441;44.748;37.600;2023-11-21T00:55:07;4.30;89.89
76577;DHT22;65441;44.748;37.600;2023-11-21T00:57:35;4.30;90.05
76577;DHT22;65441;44.748;37.600;2023-11-21T01:00:05;4.30;90.58
76577;DHT22;65441;44.748;37.600;2023-11-21T01:02:36;4.29;90.57
76577;DHT22;65441;44.748;37.600;2023-11-21T01:05:05;4.36;89.98
76577;DHT22;65441;44.748;37.600;2023-11-21T01:07:36;4.26;90.16
76577;DHT22;65441;44.748;37.600;2023-11-21T01:10:05;4.19;90.09
76577;DHT22;65441;44.748;37.600;2023-11-21T01:12:34;4.21;90.47
76577;DHT22;65441;44.748;37.600;2023-11-21T01:15:04;4.27;91.31
76577;DHT22;65441;44.748;37.600;2023-11-21T01:17:33;4.33;91.31
76577;DHT22;65441;44.748;37.600;2023-11-21T01:20:02;4.30;90.72
76577;DHT22;65441;44.748;37.600;2023-11-21T01:22:32;4.27;90.69
76577;DHT22;65441;44.748;37.600;2023-11-21T01:25:02;4.31;90.36
76577;DHT22;65441;44.748;37.600;2023-11-21T01:27:33;4.30;90.15
76577;DHT22;65441;44.748;37.600;2023-11-21T01:30:03;4.36;90.10
76577;DHT22;65441;44.748;37.600;2023-11-21T01:32:31;4.29;89.85
76577;DHT22;65441;44.748;37.600;2023-11-21T01:35:00;4.30;90.02
76577;DHT22;65441;44.748;37.600;2023-11-21T01:37:28;4.33;89.68
76577;DHT22;65441;44.748;37.600;2023-11-21T01:39:57;4.24;89.69
76577;DHT22;65441;44.748;37.600;2023-11-21T01:42:30;4.20;89.18
76577;DHT22;65441;44.748;37.600;2023-11-21T01:44:58;4.22;89.60
76577;DHT22;65441;44.748;37.600;2023-11-21T01:47:26;4.19;89.22
76577;DHT22;65441;44.748;37.600;2023-11-21T01:49:55;4.19;90.12
76577;DHT22;65441;44.748;37.600;2023-11-21T01:52:23;4.21;90.37
76577;DHT22;65441;44.748;37.600;2023-11-21T01:54:52;4.23;90.65
76577;DHT22;65441;44.748;37.600;2023-11-21T01:57:20;4.19;90.27
76577;DHT22;65441;44.748;37.600;2023-11-21T01:59:52;4.27;90.45
76577;DHT22;65441;44.748;37.600;2023-11-21T02:02:22;4.28;90.71
76577;DHT22;65441;44.748;37.600;2023-11-21T02:04:50;4.24;90.47
76577;DHT22;65441;44.748;37.600;2023-11-21T02:07:19;4.28;90.49
76577;DHT22;65441;44.748;37.600;2023-11-21T02:09:50;4.26;90.81
76577;DHT22;65441;44.748;37.600;2023-11-21T02:12:18;4.18;90.00
76577;DHT22;65441;44.748;37.600;2023-11-21T02:14:46;4.09;91.27
76577;DHT22;65441;44.748;37.600;2023-11-21T02:17:16;4.17;91.10
76577;DHT22;65441;44.748;37.600;2023-11-21T02:19:44;4.13;90.94
76577;DHT22;65441;44.748;37.600;2023-11-21T02:22:14;4.13;91.02
76577;DHT22;65441;44.748;37.600;2023-11-21T02:24:46;4.24;91.47
76577;DHT22;65441;44.748;37.600;2023-11-21T02:27:14;4.22;91.01
76577;DHT22;65441;44.748;37.600;2023-11-21T02:29:48;4.23;91.04
76577;DHT22;65441;44.748;37.600;2023-11-21T02:32:17;4.28;90.93
76577;DHT22;65441;44.748;37.600;2023-11-21T02:34:45;4.27;90.37
76577;DHT22;65441;44.748;37.600;2023-11-21T02:37:14;4.27;90.88
76577;DHT22;65441;44.748;37.600;2023-11-21T02:39:43;4.23;90.66
76577;DHT22;65441;44.748;37.600;2023-11-21T02:42:12;4.23;90.22
76577;DHT22;65441;44.748;37.600;2023-11-21T02:44:40;4.20;90.13
76577;DHT22;65441;44.748;37.600;2023-11-21T02:47:08;4.33;91.09
76577;DHT22;65441;44.748;37.600;2023-11-21T02:49:37;4.24;90.63
76577;DHT22;65441;44.748;37.600;2023-11-21T02:52:05;4.16;90.41
76577;DHT22;65441;44.748;37.600;2023-11-21T02:54:34;4.23;91.05
76577;DHT22;65441;44.748;37.600;2023-11-21T02:57:05;4.15;90.43
76577;DHT22;65441;44.748;37.600;2023-11-21T02:59:34;4.21;91.07
76577;DHT22;65441;44.748;37.600;2023-11-21T03:02:03;4.17;90.50
76577;DHT22;65441;44.748;37.600;2023-11-21T03:04:31;4.26;90.77
76577;DHT22;65441;44.748;37.600;2023-11-21T03:06:59;4.20;90.82
76577;DHT22;65441;44.748;37.600;2023-11-21T03:09:28;4.20;90.03
76577;DHT22;65441;44.748;37.600;2023-11-21T03:11:56;4.19;90.69
76577;DHT22;65441;44.748;37.600;2023-11-21T03:14:26;4.18;90.91
76577;DHT22;65441;44.748;37.600;2023-11-21T03:16:54;4.23;90.61
76577;DHT22;65441;44.748;37.600;2023-11-21T03:19:23;4.27;90.38
76577;DHT22;65441;44.748;37.600;2023-11-21T03:21:51;4.31;90.79
76577;DHT22;65441;44.748;37.600;2023-11-21T03:24:20;4.24;90.32
76577;DHT22;65441;44.748;37.600;2023-11-21T03:26:49;4.36;91.20
76577;DHT22;65441;44.748;37.600;2023-11-21T03:29:18;4.32;90.46
76577;DHT22;65441;44.748;37.600;2023-11-21T03:31:48;4.31;90.15
76577;DHT22;65441;44.748;37.600;2023-11-21T03:34:25;4.29;90.65
76577;DHT22;65441;44.748;37.600;2023-11-21T03:36:55;4.27;90.47
76577;DHT22;65441;44.748;37.600;2023-11-21T03:39:23;4.41;91.53
76577;DHT22;65441;44.748;37.600;2023-11-21T03:41:53;4.38;90.62
76577;DHT22;65441;44.748;37.600;2023-11-21T03:44:22;4.34;90.35
76577;DHT22;65441;44.748;37.600;2023-11-21T03:46:54;4.34;90.34
76577;DHT22;65441;44.748;37.600;2023-11-21T03:49:23;4.29;90.35
76577;DHT22;65441;44.748;37.600;2023-11-21T03:51:51;4.28;90.92
76577;DHT22;65441;44.748;37.600;2023-11-21T03:54:19;4.38;90.95
76577;DHT22;65441;44.748;37.600;2023-11-21T03:56:47;4.26;89.77
76577;DHT22;65441;44.748;37.600;2023-11-21T03:59:15;4.28;90.47
76577;DHT22;65441;44.748;37.600;2023-11-21T04:01:44;4.33;90.67
76577;DHT22;65441;44.748;37.600;2023-11-21T04:04:13;4.37;90.16
76577;DHT22;65441;44.748;37.600;2023-11-21T04:06:41;4.36;89.91
76577;DHT22;65441;44.748;37.600;2023-11-21T04:09:09;4.41;89.92
76577;DHT22;65441;44.748;37.600;2023-11-21T04:11:37;4.44;89.54
76577;DHT22;65441;44.748;37.600;2023-11-21T04:14:05;4.48;89.89
76577;DHT22;65441;44.748;37.600;2023-11-21T04:16:33;4.45;89.69
76577;DHT22;65441;44.748;37.600;2023-11-21T04:19:02;4.47;89.13
76577;DHT22;65441;44.748;37.600;2023-11-21T04:21:32;4.49;89.21
76577;DHT22;65441;44.748;37.600;2023-11-21T04:24:01;4.52;89.76
76577;DHT22;65441;44.748;37.600;2023-11-21T04:26:29;4.45;88.83
76577;DHT22;65441;44.748;37.600;2023-11-21T04:28:57;4.60;89.70
76577;DHT22;65441;44.748;37.600;2023-11-21T04:31:25;4.50;88.44
76577;DHT22;65441;44.748;37.600;2023-11-21T04:33:53;4.64;89.56
76577;DHT22;65441;44.748;37.600;2023-11-21T04:36:21;4.52;88.83
76577;DHT22;65441;44.748;37.600;2023-11-21T04:38:51;4.50;89.48
76577;DHT22;65441;44.748;37.600;2023-11-21T04:41:19;4.47;89.59
76577;DHT22;65441;44.748;37.600;2023-11-21T04:43:47;4.46;89.57
76577;DHT22;65441;44.748;37.600;2023-11-21T04:46:15;4.39;88.85
76577;DHT22;65441;44.748;37.600;2023-11-21T04:48:44;4.30;90.13
76577;DHT22;65441;44.748;37.600;2023-11-21T04:51:12;4.42;90.06
76577;DHT22;65441;44.748;37.600;2023-11-21T04:53:41;4.45;90.57
76577;DHT22;65441;44.748;37.600;2023-11-21T04:56:10;4.51;90.34
76577;DHT22;65441;44.748;37.600;2023-11-21T04:58:39;4.48;89.96
76577;DHT22;65441;44.748;37.600;2023-11-21T05:01:07;4.36;89.43
76577;DHT22;65441;44.748;37.600;2023-11-21T05:03:36;4.51;90.10
76577;DHT22;65441;44.748;37.600;2023-11-21T05:06:06;4.50;89.71
76577;DHT22;65441;44.748;37.600;2023-11-21T05:08:34;4.59;89.85
76577;DHT22;65441;44.748;37.600;2023-11-21T05:11:04;4.60;89.32
76577;DHT22;65441;44.748;37.600;2023-11-21T05:13:35;4.53;89.41
76577;DHT22;65441;44.748;37.600;2023-11-21T05:16:04;4.56;89.81
76577;DHT22;65441;44.748;37.600;2023-11-21T05:18:34;4.58;89.99
76577;DHT22;65441;44.748;37.600;2023-11-21T05:21:02;4.53;89.41
76577;DHT22;65441;44.748;37.600;2023-11-21T05:23:31;4.53;90.20
76577;DHT22;65441;44.748;37.600;2023-11-21T05:26:00;4.58;90.78
76577;DHT22;65441;44.748;37.600;2023-11-21T05:28:29;4.57;90.19
76577;DHT22;65441;44.748;37.600;2023-11-21T05:30:59;4.52;90.83
76577;DHT22;65441;44.748;37.600;2023-11-21T05:33:28;4.59;90.31
76577;DHT22;65441;44.748;37.600;2023-11-21T05:35:56;4.60;90.45
76577;DHT22;65441;44.748;37.600;2023-11-21T05:38:24;4.74;91.03
76577;DHT22;65441;44.748;37.600;2023-11-21T05:40:53;4.80;90.24
76577;DHT22;65441;44.748;37.600;2023-11-21T05:43:21;4.79;89.79
76577;DHT22;65441;44.748;37.600;2023-11-21T05:45:50;4.77;89.20
76577;DHT22;65441;44.748;37.600;2023-11-21T05:48:19;4.75;89.66
76577;DHT22;65441;44.748;37.600;2023-11-21T05:50:48;4.83;89.91
76577;DHT22;65441;44.748;37.600;2023-11-21T05:53:16;4.78;91.02
76577;DHT22;65441;44.748;37.600;2023-11-21T05:55:44;4.83;90.00
76577;DHT22;65441;44.748;37.600;2023-11-21T05:58:12;4.81;89.02
76577;DHT22;65441;44.748;37.600;2023-11-21T06:00:41;4.75;89.72
76577;DHT22;65441;44.748;37.600;2023-11-21T06:03:09;4.83;90.12
76577;DHT22;65441;44.748;37.600;2023-11-21T06:05:39;4.87;89.71
76577;DHT22;65441;44.748;37.600;2023-11-21T06:08:10;4.91;89.19
76577;DHT22;65441;44.748;37.600;2023-11-21T06:10:38;4.88;89.18
76577;DHT22;65441;44.748;37.600;2023-11-21T06:13:07;4.76;87.86
76577;DHT22;65441;44.748;37.600;2023-11-21T06:15:35;4.78;89.20
76577;DHT22;65441;44.748;37.600;2023-11-21T06:18:03;4.77;89.15
76577;DHT22;65441;44.748;37.600;2023-11-21T06:20:36;4.77;88.38
76577;DHT22;65441;44.748;37.600;2023-11-21T06:23:06;4.67;89.09
76577;DHT22;65441;44.748;37.600;2023-11-21T06:25:35;4.76;89.45
76577;DHT22;65441;44.748;37.600;2023-11-21T06:28:03;4.80;88.92
76577;DHT22;65441;44.748;37.600;2023-11-21T06:30:32;4.89;89.31
76577;DHT22;65441;44.748;37.600;2023-11-21T06:33:00;4.87;88.99
76577;DHT22;65441;44.748;37.600;2023-11-21T06:35:28;4.89;89.15
76577;DHT22;65441;44.748;37.600;2023-11-21T06:38:00;4.89;88.20
76577;DHT22;65441;44.748;37.600;2023-11-21T06:40:30;4.92;89.37
76577;DHT22;65441;44.748;37.600;2023-11-21T06:43:00;4.90;88.55
76577;DHT22;65441;44.748;37.600;2023-11-21T06:45:28;4.92;88.44
76577;DHT22;65441;44.748;37.600;2023-11-21T06:47:56;5.08;88.78
76577;DHT22;65441;44.748;37.600;2023-11-21T06:50:24;5.05;88.12
76577;DHT22;65441;44.748;37.600;2023-11-21T06:52:53;4.96;86.77
76577;DHT22;65441;44.748;37.600;2023-11-21T06:55:21;5.02;88.57
76577;DHT22;65441;44.748;37.600;2023-11-21T06:57:50;5.05;88.18
76577;DHT22;65441;44.748;37.600;2023-11-21T07:00:19;4.98;87.28
76577;DHT22;65441;44.748;37.600;2023-11-21T07:02:47;5.17;88.24
76577;DHT22;65441;44.748;37.600;2023-11-21T07:05:15;5.17;88.00
76577;DHT22;65441;44.748;37.600;2023-11-21T07:07:47;5.13;87.07
76577;DHT22;65441;44.748;37.600;2023-11-21T07:10:16;5.22;88.49
76577;DHT22;65441;44.748;37.600;2023-11-21T07:12:44;5.07;87.44
76577;DHT22;65441;44.748;37.600;2023-11-21T07:15:14;4.98;88.90
76577;DHT22;65441;44.748;37.600;2023-11-21T07:17:42;4.86;88.20
76577;DHT22;65441;44.748;37.600;2023-11-21T07:20:11;4.95;88.96
76577;DHT22;65441;44.748;37.600;2023-11-21T07:22:40;4.96;88.14
76577;DHT22;65441;44.748;37.600;2023-11-21T07:25:08;5.02;88.13
76577;DHT22;65441;44.748;37.600;2023-11-21T07:27:37;5.05;87.99
76577;DHT22;65441;44.748;37.600;2023-11-21T07:30:06;5.07;87.89
76577;DHT22;65441;44.748;37.600;2023-11-21T07:32:37;5.08;86.91
76577;DHT22;65441;44.748;37.600;2023-11-21T07:35:07;5.08;87.56
76577;DHT22;65441;44.748;37.600;2023-11-21T07:37:35;5.05;87.24
76577;DHT22;65441;44.748;37.600;2023-11-21T07:40:04;4.97;86.65
76577;DHT22;65441;44.748;37.600;2023-11-21T07:42:35;5.00;87.64
76577;DHT22;65441;44.748;37.600;2023-11-21T07:45:06;5.91;97.87
76577;DHT22;65441;44.748;37.600;2023-11-21T07:47:35;7.15;100.08
76577;DHT22;65441;44.748;37.600;2023-11-21T07:50:06;8.23;101.57
76577;DHT22;65441;44.748;37.600;2023-11-21T07:52:35;8.08;99.29
76577;DHT22;65441;44.748;37.600;2023-11-21T07:55:04;8.52;97.65
76577;DHT22;65441;44.748;37.600;2023-11-21T07:57:34;9.29;99.14
76577;DHT22;65441;44.748;37.600;2023-11-21T08:00:03;8.56;85.19
76577;DHT22;65441;44.748;37.600;2023-11-21T08:02:39;8.97;94.07
76577;DHT22;65441;44.748;37.600;2023-11-21T08:05:10;9.53;92.75
76577;DHT22;65441;44.748;37.600;2023-11-21T08:07:41;9.55;90.04
76577;DHT22;65441;44.748;37.600;2023-11-21T08:10:10;9.90;90.97
76577;DHT22;65441;44.748;37.600;2023-11-21T08:12:38;10.15;91.35
76577;DHT22;65441;44.748;37.600;2023-11-21T08:15:09;10.12;87.25
76577;DHT22;65441;44.748;37.600;2023-11-21T08:17:38;10.37;83.23
76577;DHT22;65441;44.748;37.600;2023-11-21T08:20:07;10.24;83.48
76577;DHT22;65441;44.748;37.600;2023-11-21T08:22:39;10.75;86.35
76577;DHT22;65441;44.748;37.600;2023-11-21T08:25:08;10.54;80.71
76577;DHT22;65441;44.748;37.600;2023-11-21T08:27:37;10.01;73.09
76577;DHT22;65441;44.748;37.600;2023-11-21T08:30:06;10.34;84.84
76577;DHT22;65441;44.748;37.600;2023-11-21T08:32:35;10.37;82.54
76577;DHT22;65441;44.748;37.600;2023-11-21T08:35:04;10.65;83.92
76577;DHT22;65441;44.748;37.600;2023-11-21T08:37:32;10.38;71.47
76577;DHT22;65441;44.748;37.600;2023-11-21T08:40:09;10.49;82.15
76577;DHT22;65441;44.748;37.600;2023-11-21T08:42:41;10.56;75.67
76577;DHT22;65441;44.748;37.600;2023-11-21T08:45:09;10.62;78.37
76577;DHT22;65441;44.748;37.600;2023-11-21T08:47:38;10.40;77.94
76577;DHT22;65441;44.748;37.600;2023-11-21T08:50:08;9.70;79.59
76577;DHT22;65441;44.748;37.600;2023-11-21T08:52:36;9.71;82.33
76577;DHT22;65441;44.748;37.600;2023-11-21T08:55:05;9.70;76.46
76577;DHT22;65441;44.748;37.600;2023-11-21T08:57:37;9.95;85.09
76577;DHT22;65441;44.748;37.600;2023-11-21T09:00:09;9.94;72.60
76577;DHT22;65441;44.748;37.600;2023-11-21T09:02:38;9.94;72.82
76577;DHT22;65441;44.748;37.600;2023-11-21T09:05:09;10.81;80.02
76577;DHT22;65441;44.748;37.600;2023-11-21T09:07:38;10.24;70.26
76577;DHT22;65441;44.748;37.600;2023-11-21T09:10:08;10.31;76.19
76577;DHT22;65441;44.748;37.600;2023-11-21T09:12:38;9.93;80.24
76577;DHT22;65441;44.748;37.600;2023-11-21T09:15:08;9.99;79.50
76577;DHT22;65441;44.748;37.600;2023-11-21T09:17:38;10.03;76.51
76577;DHT22;65441;44.748;37.600;2023-11-21T09:20:10;9.86;73.96
76577;DHT22;65441;44.748;37.600;2023-11-21T09:22:41;8.94;72.29
76577;DHT22;65441;44.748;37.600;2023-11-21T09:25:11;9.20;74.20
76577;DHT22;65441;44.748;37.600;2023-11-21T09:27:41;9.38;78.69
76577;DHT22;65441;44.748;37.600;2023-11-21T09:30:10;9.37;79.46
76577;DHT22;65441;44.748;37.600;2023-11-21T09:32:41;9.12;77.53
76577;DHT22;65441;44.748;37.600;2023-11-21T09:35:12;9.47;76.47
76577;DHT22;65441;44.748;37.600;2023-11-21T09:37:40;9.70;79.55
76577;DHT22;65441;44.748;37.600;2023-11-21T09:40:11;9.89;73.06
76577;DHT22;65441;44.748;37.600;2023-11-21T09:42:51;9.95;82.17
76577;DHT22;65441;44.748;37.600;2023-11-21T09:45:25;9.50;80.73
76577;DHT22;65441;44.748;37.600;2023-11-21T09:47:54;10.27;81.45
76577;DHT22;65441;44.748;37.600;2023-11-21T09:50:23;9.91;74.82
76577;DHT22;65441;44.748;37.600;2023-11-21T09:52:57;9.15;72.13
76577;DHT22;65441;44.748;37.600;2023-11-21T09:55:28;8.56;73.72
76577;DHT22;65441;44.748;37.600;2023-11-21T09:58:00;7.87;74.39
76577;DHT22;65441;44.748;37.600;2023-11-21T10:00:29;7.68;74.35
76577;DHT22;65441;44.748;37.600;2023-11-21T10:03:00;7.28;76.53
76577;DHT22;65441;44.748;37.600;2023-11-21T10:05:29;7.22;78.96
76577;DHT22;65441;44.748;37.600;2023-11-21T10:08:01;7.12;79.45
76577;DHT22;65441;44.748;37.600;2023-11-21T10:10:31;7.17;80.27
76577;DHT22;65441;44.748;37.600;2023-11-21T10:13:03;7.47;79.49
76577;DHT22;65441;44.748;37.600;2023-11-21T10:15:34;7.83;78.87
76577;DHT22;65441;44.748;37.600;2023-11-21T10:18:03;7.91;75.00
76577;DHT22;65441;44.748;37.600;2023-11-21T10:20:33;7.60;75.30
76577;DHT22;65441;44.748;37.600;2023-11-21T10:23:04;7.71;76.62
76577;DHT22;65441;44.748;37.600;2023-11-21T10:25:34;7.72;78.07
76577;DHT22;65441;44.748;37.600;2023-11-21T10:28:05;7.60;75.71
76577;DHT22;65441;44.748;37.600;2023-11-21T10:30:34;7.54;74.91
76577;DHT22;65441;44.748;37.600;2023-11-21T10:33:04;7.87;78.01
76577;DHT22;65441;44.748;37.600;2023-11-21T10:35:42;8.03;75.27
76577;DHT22;65441;44.748;37.600;2023-11-21T10:38:13;8.03;75.15
76577;DHT22;65441;44.748;37.600;2023-11-21T10:40:42;8.04;74.90
76577;DHT22;65441;44.748;37.600;2023-11-21T10:43:13;8.11;76.17
76577;DHT22;65441;44.748;37.600;2023-11-21T10:45:42;8.12;75.41
76577;DHT22;65441;44.748;37.600;2023-11-21T10:48:13;8.16;74.82
76577;DHT22;65441;44.748;37.600;2023-11-21T10:50:43;8.18;74.31
76577;DHT22;65441;44.748;37.600;2023-11-21T10:53:11;8.17;74.71
76577;DHT22;65441;44.748;37.600;2023-11-21T10:55:40;8.12;73.61
76577;DHT22;65441;44.748;37.600;2023-11-21T10:58:13;7.91;73.05
76577;DHT22;65441;44.748;37.600;2023-11-21T11:00:41;7.96;74.25
76577;DHT22;65441;44.748;37.600;2023-11-21T11:03:12;7.99;75.45
76577;DHT22;65441;44.748;37.600;2023-11-21T11:05:42;8.30;75.76
76577;DHT22;65441;44.748;37.600;2023-11-21T11:08:19;8.59;73.81
76577;DHT22;65441;44.748;37.600;2023-11-21T11:10:52;8.41;73.17
76577;DHT22;65441;44.748;37.600;2023-11-21T11:13:23;8.24;71.16
76577;DHT22;65441;44.748;37.600;2023-11-21T11:15:58;8.21;74.47
76577;DHT22;65441;44.748;37.600;2023-11-21T11:18:28;8.08;71.22
76577;DHT22;65441;44.748;37.600;2023-11-21T11:21:01;7.85;70.86
76577;DHT22;65441;44.748;37.600;2023-11-21T11:23:51;8.28;70.29
76577;DHT22;65441;44.748;37.600;2023-11-21T11:26:31;8.61;70.39
76577;DHT22;65441;44.748;37.600;2023-11-21T11:29:13;8.77;71.83
76577;DHT22;65441;44.748;37.600;2023-11-21T11:31:51;9.19;70.30
76577;DHT22;65441;44.748;37.600;2023-11-21T11:34:29;9.15;69.57
76577;DHT22;65441;44.748;37.600;2023-11-21T11:37:01;9.21;67.80
76577;DHT22;65441;44.748;37.600;2023-11-21T11:39:31;9.23;68.78
76577;DHT22;65441;44.748;37.600;2023-11-21T11:42:04;9.25;69.26
76577;DHT22;65441;44.748;37.600;2023-11-21T11:44:51;9.09;64.63
76577;DHT22;65441;44.748;37.600;2023-11-21T11:47:23;8.97;68.39
76577;DHT22;65441;44.748;37.600;2023-11-21T11:50:01;9.12;66.06
76577;DHT22;65441;44.748;37.600;2023-11-21T11:52:35;9.22;67.56
76577;DHT22;65441;44.748;37.600;2023-11-21T11:55:05;9.02;67.07
76577;DHT22;65441;44.748;37.600;2023-11-21T11:57:37;9.14;66.69
76577;DHT22;65441;44.748;37.600;2023-11-21T12:00:18;9.25;68.83
76577;DHT22;65441;44.748;37.600;2023-11-21T12:02:49;9.16;66.33
76577;DHT22;65441;44.748;37.600;2023-11-21T12:05:21;8.91;66.56
76577;DHT22;65441;44.748;37.600;2023-11-21T12:07:51;8.94;64.97
76577;DHT22;65441;44.748;37.600;2023-11-21T12:10:21;8.79;65.97
76577;DHT22;65441;44.748;37.600;2023-11-21T12:12:52;8.46;68.62
76577;DHT22;65441;44.748;37.600;2023-11-21T12:15:23;8.65;69.90
76577;DHT22;65441;44.748;37.600;2023-11-21T12:17:52;8.05;63.21
76577;DHT22;65441;44.748;37.600;2023-11-21T12:20:22;7.90;67.92
76577;DHT22;65441;44.748;37.600;2023-11-21T12:22:51;7.59;65.77
76577;DHT22;65441;44.748;37.600;2023-11-21T12:25:22;7.72;71.53
76577;DHT22;65441;44.748;37.600;2023-11-21T12:27:52;7.70;69.66
76577;DHT22;65441;44.748;37.600;2023-11-21T12:30:23;7.70;71.70
76577;DHT22;65441;44.748;37.600;2023-11-21T12:32:55;7.61;71.93
76577;DHT22;65441;44.748;37.600;2023-11-21T12:35:26;7.56;71.55
76577;DHT22;65441;44.748;37.600;2023-11-21T12:37:55;7.48;72.39
76577;DHT22;65441;44.748;37.600;2023-11-21T12:40:24;7.42;72.89
76577;DHT22;65441;44.748;37.600;2023-11-21T12:42:55;7.44;71.85
76577;DHT22;65441;44.748;37.600;2023-11-21T12:45:26;7.41;71.90
76577;DHT22;65441;44.748;37.600;2023-11-21T12:47:56;7.29;72.25
76577;DHT22;65441;44.748;37.600;2023-11-21T12:50:28;7.27;73.01
76577;DHT22;65441;44.748;37.600;2023-11-21T12:52:59;7.20;72.74
76577;DHT22;65441;44.748;37.600;2023-11-21T12:55:30;7.11;70.97
76577;DHT22;65441;44.748;37.600;2023-11-21T12:58:02;6.97;71.32
76577;DHT22;65441;44.748;37.600;2023-11-21T13:00:40;6.90;72.20
76577;DHT22;65441;44.748;37.600;2023-11-21T13:03:10;6.88;73.42
76577;DHT22;65441;44.748;37.600;2023-11-21T13:05:45;6.89;73.12
76577;DHT22;65441;44.748;37.600;2023-11-21T13:08:17;6.94;72.88
76577;DHT22;65441;44.748;37.600;2023-11-21T13:10:51;6.86;72.73
76577;DHT22;65441;44.748;37.600;2023-11-21T13:13:21;6.94;74.52
76577;DHT22;65441;44.748;37.600;2023-11-21T13:15:53;7.01;74.73
76577;DHT22;65441;44.748;37.600;2023-11-21T13:18:22;7.04;73.66
76577;DHT22;65441;44.748;37.600;2023-11-21T13:20:53;7.09;73.83
76577;DHT22;65441;44.748;37.600;2023-11-21T13:23:23;6.89;73.42
76577;DHT22;65441;44.748;37.600;2023-11-21T13:25:52;6.95;73.74
76577;DHT22;65441;44.748;37.600;2023-11-21T13:28:21;6.95;74.19
76577;DHT22;65441;44.748;37.600;2023-11-21T13:30:52;6.93;73.87
76577;DHT22;65441;44.748;37.600;2023-11-21T13:33:21;6.96;74.43
76577;DHT22;65441;44.748;37.600;2023-11-21T13:35:54;6.79;73.36
76577;DHT22;65441;44.748;37.600;2023-11-21T13:38:23;6.69;73.63
76577;DHT22;65441;44.748;37.600;2023-11-21T13:40:56;6.59;72.80
76577;DHT22;65441;44.748;37.600;2023-11-21T13:43:25;6.53;74.84
76577;DHT22;65441;44.748;37.600;2023-11-21T13:45:56;6.64;75.49
76577;DHT22;65441;44.748;37.600;2023-11-21T13:48:29;6.71;73.85
76577;DHT22;65441;44.748;37.600;2023-11-21T13:51:07;6.57;73.70
76577;DHT22;65441;44.748;37.600;2023-11-21T13:53:42;6.63;74.73
76577;DHT22;65441;44.748;37.600;2023-11-21T13:56:11;6.58;73.64
76577;DHT22;65441;44.748;37.600;2023-11-21T13:58:42;6.59;75.00
76577;DHT22;65441;44.748;37.600;2023-11-21T14:01:18;6.45;74.12
76577;DHT22;65441;44.748;37.600;2023-11-21T14:04:20;6.48;74.20
76577;DHT22;65441;44.748;37.600;2023-11-21T14:07:02;6.42;74.05
76577;DHT22;65441;44.748;37.600;2023-11-21T14:09:47;6.39;74.03
76577;DHT22;65441;44.748;37.600;2023-11-21T14:12:16;6.37;74.47
76577;DHT22;65441;44.748;37.600;2023-11-21T14:14:44;6.37;75.61
76577;DHT22;65441;44.748;37.600;2023-11-21T14:17:15;6.43;75.12
76577;DHT22;65441;44.748;37.600;2023-11-21T14:19:43;6.49;75.14
76577;DHT22;65441;44.748;37.600;2023-11-21T14:22:12;6.55;74.42
76577;DHT22;65441;44.748;37.600;2023-11-21T14:24:40;6.54;74.57
76577;DHT22;65441;44.748;37.600;2023-11-21T14:27:13;6.66;75.71
76577;DHT22;65441;44.748;37.600;2023-11-21T14:29:41;6.59;74.34
76577;DHT22;65441;44.748;37.600;2023-11-21T14:32:11;6.54;73.45
76577;DHT22;65441;44.748;37.600;2023-11-21T14:34:42;6.60;74.70
76577;DHT22;65441;44.748;37.600;2023-11-21T14:37:13;6.72;76.76
76577;DHT22;65441;44.748;37.600;2023-11-21T14:39:41;6.76;75.56
76577;DHT22;65441;44.748;37.600;2023-11-21T14:42:12;6.76;76.00
76577;DHT22;65441;44.748;37.600;2023-11-21T14:44:41;6.71;75.26
76577;DHT22;65441;44.748;37.600;2023-11-21T14:47:12;6.67;74.89
76577;DHT22;65441;44.748;37.600;2023-11-21T14:49:45;6.65;75.90
76577;DHT22;65441;44.748;37.600;2023-11-21T14:52:19;6.69;75.75
76577;DHT22;65441;44.748;37.600;2023-11-21T14:55:00;6.72;74.80
76577;DHT22;65441;44.748;37.600;2023-11-21T14:57:42;6.71;75.69
76577;DHT22;65441;44.748;37.600;2023-11-21T15:00:16;6.67;75.12
76577;DHT22;65441;44.748;37.600;2023-11-21T15:03:05;6.68;76.54
76577;DHT22;65441;44.748;37.600;2023-11-21T15:05:35;6.59;75.86
76577;DHT22;65441;44.748;37.600;2023-11-21T15:08:02;6.66;73.57
76577;DHT22;65441;44.748;37.600;2023-11-21T15:10:45;6.59;73.64
76577;DHT22;65441;44.748;37.600;2023-11-21T15:13:14;6.70;75.21
76577;DHT22;65441;44.748;37.600;2023-11-21T15:15:42;6.71;71.83
76577;DHT22;65441;44.748;37.600;2023-11-21T15:18:51;6.72;73.53
76577;DHT22;65441;44.748;37.600;2023-11-21T15:21:22;6.68;75.08
76577;DHT22;65441;44.748;37.600;2023-11-21T15:23:50;6.53;76.40
76577;DHT22;65441;44.748;37.600;2023-11-21T15:26:19;6.43;76.63
76577;DHT22;65441;44.748;37.600;2023-11-21T15:28:48;6.38;77.04
76577;DHT22;65441;44.748;37.600;2023-11-21T15:31:17;6.55;76.57
76577;DHT22;65441;44.748;37.600;2023-11-21T15:33:50;6.55;78.16
76577;DHT22;65441;44.748;37.600;2023-11-21T15:36:19;6.54;76.61
76577;DHT22;65441;44.748;37.600;2023-11-21T15:38:49;6.40;78.30
76577;DHT22;65441;44.748;37.600;2023-11-21T15:41:17;6.35;77.16
76577;DHT22;65441;44.748;37.600;2023-11-21T15:43:45;6.41;79.53
76577;DHT22;65441;44.748;37.600;2023-11-21T15:46:15;6.38;79.31
76577;DHT22;65441;44.748;37.600;2023-11-21T15:48:44;6.44;80.52